Time;durP1;ratioP1;P1;durP2;ratioP2;P2;SDS_P1;SDS_P2;PMS_P1;PMS_P2;Temp;Humidity;BMP_temperature;BMP_pressure;BME280_temperature;BME280_humidity;BME280_pressure;Samples;Min_cycle;Max_cycle;Signal;HPM_P1;HPM_P2
2023/06/07 00:00:36;;;;;;;73.70;69.07;;;16.50;82.90;;;;;;5036291;28;20190;-76
2023/06/07 00:03:09;;;;;;;64.93;60.90;;;16.50;82.60;;;;;;5039069;28;20191;-75
2023/06/07 00:05:39;;;;;;;57.00;53.20;;;16.60;82.30;;;;;;5050921;28;20222;-73
2023/06/07 00:08:07;;;;;;;49.47;45.90;;;16.70;82.20;;;;;;5048044;28;20217;-72
2023/06/07 00:10:34;;;;;;;47.57;44.27;;;16.80;82.10;;;;;;5041529;28;20199;-73
2023/06/07 00:13:02;;;;;;;41.30;38.07;;;16.90;82.10;;;;;;5048430;28;20189;-75
2023/06/07 00:15:30;;;;;;;36.47;33.67;;;17.00;81.70;;;;;;5046144;28;20571;-73
2023/06/07 00:18:00;;;;;;;29.63;27.20;;;17.20;81.70;;;;;;5050901;28;20210;-71
2023/06/07 00:20:28;;;;;;;27.67;25.30;;;17.30;80.70;;;;;;5044160;28;20179;-74
2023/06/07 00:22:55;;;;;;;23.07;21.07;;;17.40;80.40;;;;;;5045944;28;20197;-75
2023/06/07 00:25:23;;;;;;;20.67;18.90;;;17.60;80.50;;;;;;5046075;28;20315;-74
2023/06/07 00:27:51;;;;;;;18.83;17.17;;;17.70;80.00;;;;;;5041420;28;20219;-73
2023/06/07 00:30:19;;;;;;;15.63;14.27;;;17.80;79.70;;;;;;5040660;28;20191;-70
2023/06/07 00:32:46;;;;;;;16.90;15.10;;;17.80;79.80;;;;;;5051196;28;20237;-76
2023/06/07 00:35:14;;;;;;;14.93;12.70;;;18.00;79.80;;;;;;5046268;28;20211;-69
2023/06/07 00:37:42;;;;;;;12.70;11.60;;;18.10;79.00;;;;;;5049526;28;20175;-72
2023/06/07 00:40:10;;;;;;;10.20;8.50;;;18.30;78.90;;;;;;5040645;28;20219;-72
2023/06/07 00:42:37;;;;;;;14.67;8.10;;;18.50;77.40;;;;;;5044673;28;20215;-71
2023/06/07 00:45:05;;;;;;;9.80;7.00;;;18.70;77.40;;;;;;5051309;28;20246;-72
2023/06/07 00:47:33;;;;;;;9.23;6.87;;;18.80;77.00;;;;;;5027602;28;20273;-72
2023/06/07 00:50:01;;;;;;;7.43;4.63;;;19.00;76.60;;;;;;5043682;28;20211;-73
2023/06/07 00:52:28;;;;;;;8.73;4.30;;;19.20;75.50;;;;;;5034346;28;20192;-71
2023/06/07 00:54:58;;;;;;;4.10;3.33;;;19.50;74.80;;;;;;5045868;28;20272;-71
2023/06/07 00:57:25;;;;;;;6.97;2.47;;;19.70;73.50;;;;;;5042502;28;20279;-74
2023/06/07 00:59:53;;;;;;;4.07;1.50;;;19.70;71.40;;;;;;5050119;28;20263;-72
2023/06/07 01:02:20;;;;;;;3.13;1.80;;;19.90;70.40;;;;;;5044035;28;20627;-73
2023/06/07 01:04:49;;;;;;;6.70;2.00;;;20.00;70.10;;;;;;5038075;28;20644;-73
2023/06/07 01:07:17;;;;;;;5.30;1.90;;;20.10;70.50;;;;;;5045735;28;20681;-73
2023/06/07 01:09:45;;;;;;;4.20;1.43;;;20.30;70.00;;;;;;5049915;28;20199;-74
2023/06/07 01:12:16;;;;;;;5.63;1.67;;;20.30;69.20;;;;;;5035689;28;20246;-74
2023/06/07 01:14:44;;;;;;;6.03;1.43;;;20.40;68.50;;;;;;5042641;28;20215;-74
2023/06/07 01:17:12;;;;;;;3.97;1.43;;;20.40;67.70;;;;;;5044759;28;21560;-72
2023/06/07 01:19:42;;;;;;;3.10;1.30;;;20.30;67.20;;;;;;5050897;28;20566;-72
2023/06/07 01:22:11;;;;;;;3.90;1.10;;;20.20;68.50;;;;;;5042157;28;20179;-71
2023/06/07 01:24:42;;;;;;;1.80;1.00;;;20.30;67.40;;;;;;5041168;28;20175;-72
2023/06/07 01:27:10;;;;;;;4.70;1.20;;;20.20;66.90;;;;;;5044706;28;20207;-71
2023/06/07 01:29:38;;;;;;;1.50;0.70;;;20.30;67.20;;;;;;5037818;28;20805;-71
2023/06/07 01:32:09;;;;;;;5.47;0.83;;;20.60;66.50;;;;;;5050278;28;20183;-72
2023/06/07 01:34:37;;;;;;;3.30;1.00;;;20.80;65.40;;;;;;5052490;28;20630;-71
2023/06/07 01:37:05;;;;;;;3.60;1.00;;;20.80;65.40;;;;;;5039360;28;20180;-74
2023/06/07 01:39:33;;;;;;;5.50;1.10;;;20.90;65.20;;;;;;5037736;28;20188;-71
2023/06/07 01:42:02;;;;;;;6.30;1.10;;;21.10;64.20;;;;;;5038756;28;20194;-74
2023/06/07 01:44:29;;;;;;;4.53;0.90;;;20.80;65.00;;;;;;5044581;28;20188;-75
2023/06/07 01:46:57;;;;;;;10.63;1.40;;;21.00;65.40;;;;;;5046954;28;20207;-72
2023/06/07 01:49:24;;;;;;;8.60;1.47;;;20.90;65.00;;;;;;5037505;28;20168;-72
2023/06/07 01:51:52;;;;;;;3.90;1.00;;;20.80;64.30;;;;;;5040662;28;20172;-73
2023/06/07 01:54:20;;;;;;;3.73;1.20;;;20.70;65.00;;;;;;5045930;28;20206;-71
2023/06/07 01:57:07;;;;;;;7.80;2.10;;;20.80;64.60;;;;;;5049433;28;20179;-74
2023/06/07 01:59:43;;;;;;;3.60;1.00;;;20.40;65.10;;;;;;5053653;28;20180;-73
2023/06/07 02:02:20;;;;;;;8.77;1.70;;;20.30;65.40;;;;;;5042826;28;20344;-74
2023/06/07 02:04:53;;;;;;;8.83;1.60;;;20.30;65.40;;;;;;5052496;28;20176;-72
2023/06/07 02:07:24;;;;;;;8.00;1.40;;;20.40;64.70;;;;;;5034932;28;20236;-74
2023/06/07 02:09:53;;;;;;;3.17;1.07;;;20.30;65.30;;;;;;5050441;28;20192;-76
2023/06/07 02:12:21;;;;;;;5.37;1.23;;;20.50;64.20;;;;;;5053294;28;20253;-74
2023/06/07 02:14:52;;;;;;;3.93;1.10;;;20.30;65.30;;;;;;5043077;28;20218;-73
2023/06/07 02:17:20;;;;;;;8.27;1.60;;;20.30;65.00;;;;;;5053220;28;20614;-73
2023/06/07 02:19:47;;;;;;;3.80;0.97;;;20.50;64.70;;;;;;5038347;28;20176;-73
2023/06/07 02:22:15;;;;;;;5.63;1.40;;;20.40;64.80;;;;;;5035399;28;20185;-71
2023/06/07 02:24:42;;;;;;;5.13;1.90;;;20.80;64.40;;;;;;5048026;28;20208;-69
2023/06/07 02:27:10;;;;;;;6.73;1.50;;;20.80;63.70;;;;;;5037208;28;20223;-73
2023/06/07 02:29:37;;;;;;;8.17;1.80;;;21.00;63.60;;;;;;5038062;28;20181;-74
2023/06/07 02:32:07;;;;;;;5.57;1.30;;;20.90;63.90;;;;;;5046078;28;20176;-74
2023/06/07 02:34:34;;;;;;;5.47;1.50;;;20.90;63.90;;;;;;5050768;28;20274;-73
2023/06/07 02:37:02;;;;;;;4.77;1.30;;;21.00;63.20;;;;;;5041255;28;20184;-74
2023/06/07 02:39:29;;;;;;;2.27;1.20;;;21.00;63.70;;;;;;5037386;28;20172;-73
2023/06/07 02:41:57;;;;;;;3.10;1.10;;;21.30;62.40;;;;;;5042072;28;20193;-72
2023/06/07 02:44:24;;;;;;;4.60;1.43;;;21.20;62.70;;;;;;5042809;28;20271;-73
2023/06/07 02:46:51;;;;;;;3.13;1.10;;;21.10;63.20;;;;;;5043193;28;20243;-71
2023/06/07 02:49:19;;;;;;;8.77;1.63;;;21.30;62.60;;;;;;5036691;28;20177;-69
2023/06/07 02:51:46;;;;;;;4.53;1.10;;;21.20;63.10;;;;;;5048636;28;20707;-74
2023/06/07 02:54:15;;;;;;;5.23;1.57;;;21.00;63.50;;;;;;5041246;28;20188;-73
2023/06/07 02:56:43;;;;;;;4.07;1.07;;;20.80;64.70;;;;;;5048982;28;20180;-73
2023/06/07 02:59:10;;;;;;;3.60;1.30;;;20.80;65.00;;;;;;5044913;28;20549;-74
2023/06/07 03:01:37;;;;;;;4.33;1.20;;;20.90;64.80;;;;;;5044316;28;20184;-74
2023/06/07 03:04:05;;;;;;;4.70;1.47;;;20.80;64.60;;;;;;5047261;28;20187;-74
2023/06/07 03:06:33;;;;;;;5.73;1.53;;;20.90;64.70;;;;;;5048515;28;20211;-73
2023/06/07 03:09:00;;;;;;;2.33;1.33;;;21.10;64.10;;;;;;5032631;28;20245;-75
2023/06/07 03:11:27;;;;;;;3.47;1.10;;;20.90;65.00;;;;;;5044635;28;20183;-75
2023/06/07 03:13:54;;;;;;;4.83;1.43;;;20.90;65.20;;;;;;5032163;28;20179;-75
2023/06/07 03:16:22;;;;;;;4.47;1.40;;;21.00;65.00;;;;;;5034769;28;20168;-73
2023/06/07 03:18:49;;;;;;;5.53;1.70;;;21.30;64.50;;;;;;5049974;28;20195;-73
2023/06/07 03:21:17;;;;;;;2.83;1.20;;;21.50;63.70;;;;;;5035236;28;20188;-71
2023/06/07 03:23:45;;;;;;;8.50;1.50;;;21.70;63.20;;;;;;5056270;28;20206;-71
2023/06/07 03:26:12;;;;;;;4.60;1.60;;;21.50;63.40;;;;;;5039143;28;20716;-72
2023/06/07 03:28:39;;;;;;;4.77;1.43;;;21.50;63.10;;;;;;5038493;28;20585;-74
2023/06/07 03:31:06;;;;;;;1.73;1.40;;;21.50;63.30;;;;;;5056138;28;20698;-69
2023/06/07 03:33:34;;;;;;;3.83;1.30;;;21.60;63.00;;;;;;5054620;28;20546;-70
2023/06/07 03:36:01;;;;;;;3.13;0.97;;;21.90;62.00;;;;;;5051803;28;20684;-73
2023/06/07 03:38:30;;;;;;;4.30;1.60;;;22.00;61.20;;;;;;5052527;28;20219;-74
2023/06/07 03:41:00;;;;;;;3.20;1.37;;;22.40;59.90;;;;;;5045902;28;20696;-75
2023/06/07 03:43:30;;;;;;;6.40;1.50;;;22.10;60.00;;;;;;5038577;28;20188;-74
2023/06/07 03:45:57;;;;;;;3.23;1.23;;;22.00;60.90;;;;;;5056045;28;20217;-73
2023/06/07 03:48:25;;;;;;;3.37;1.40;;;21.90;61.60;;;;;;5048338;28;20258;-74
2023/06/07 03:50:52;;;;;;;4.20;1.10;;;21.80;61.60;;;;;;5047564;28;20226;-74
2023/06/07 03:53:20;;;;;;;2.43;1.33;;;21.70;62.20;;;;;;5049725;28;20180;-76
2023/06/07 03:55:49;;;;;;;5.37;1.60;;;21.80;61.60;;;;;;5050414;28;20168;-75
2023/06/07 03:58:19;;;;;;;5.37;1.40;;;21.80;62.10;;;;;;5043150;28;20275;-74
2023/06/07 04:00:48;;;;;;;5.03;1.40;;;21.70;61.60;;;;;;5041839;28;20223;-76
2023/06/07 04:03:16;;;;;;;3.70;1.70;;;22.00;61.20;;;;;;5039789;28;20234;-75
2023/06/07 04:05:43;;;;;;;6.50;1.37;;;22.30;60.20;;;;;;5051490;28;20204;-72
2023/06/07 04:08:11;;;;;;;2.70;1.20;;;22.20;61.20;;;;;;5050159;28;20187;-74
2023/06/07 04:10:40;;;;;;;5.23;1.23;;;22.30;60.00;;;;;;5046016;28;20164;-76
2023/06/07 04:13:08;;;;;;;2.97;1.30;;;22.30;59.80;;;;;;5045174;28;20186;-73
2023/06/07 04:15:35;;;;;;;2.63;1.37;;;22.40;60.10;;;;;;5047279;28;20203;-75
2023/06/07 04:18:03;;;;;;;4.60;1.50;;;22.30;60.00;;;;;;5053690;28;20262;-73
2023/06/07 04:20:30;;;;;;;3.23;1.30;;;22.50;59.60;;;;;;5053749;28;20702;-73
2023/06/07 04:22:57;;;;;;;6.13;1.30;;;22.90;58.10;;;;;;5052342;28;20644;-73
2023/06/07 04:25:32;;;;;;;5.43;1.00;;;22.80;58.80;;;;;;5054806;28;20224;-74
2023/06/07 04:28:03;;;;;;;2.77;1.37;;;22.70;58.10;;;;;;5054794;28;20637;-74
2023/06/07 04:30:40;;;;;;;3.90;1.20;;;22.80;57.80;;;;;;5051531;28;20698;-74
2023/06/07 04:33:10;;;;;;;8.97;1.20;;;23.30;57.00;;;;;;5050380;28;20266;-74
2023/06/07 04:35:38;;;;;;;2.50;0.90;;;23.20;56.50;;;;;;5052034;28;20176;-75
2023/06/07 04:38:05;;;;;;;4.93;1.20;;;22.70;56.60;;;;;;5051484;28;20183;-76
2023/06/07 04:40:32;;;;;;;2.80;0.80;;;22.40;57.50;;;;;;5048968;28;20184;-74
2023/06/07 04:43:06;;;;;;;3.93;1.20;;;22.50;57.10;;;;;;5028342;28;20783;-74
2023/06/07 04:45:34;;;;;;;1.87;0.97;;;22.90;56.20;;;;;;5054440;28;20181;-75
2023/06/07 04:48:01;;;;;;;1.90;1.20;;;23.00;55.90;;;;;;5048436;28;20233;-73
2023/06/07 04:50:29;;;;;;;3.60;1.13;;;23.30;55.30;;;;;;5042434;28;20208;-74
2023/06/07 04:53:03;;;;;;;2.83;0.83;;;23.20;55.30;;;;;;5028962;28;20194;-75
2023/06/07 04:55:31;;;;;;;1.63;0.87;;;22.50;56.90;;;;;;5040526;28;20233;-76
2023/06/07 04:57:59;;;;;;;3.20;1.17;;;22.20;57.90;;;;;;5040088;28;20642;-69
2023/06/07 05:00:27;;;;;;;4.00;1.23;;;22.40;57.30;;;;;;5053507;28;20179;-73
2023/06/07 05:02:54;;;;;;;5.43;1.00;;;22.80;55.70;;;;;;5053123;28;20188;-71
2023/06/07 05:05:21;;;;;;;2.73;0.80;;;22.80;56.00;;;;;;5043708;28;20199;-72
2023/06/07 05:07:49;;;;;;;4.30;1.30;;;22.30;56.90;;;;;;5042024;28;20209;-77
2023/06/07 05:10:20;;;;;;;3.27;1.10;;;22.30;57.10;;;;;;5042572;28;20180;-73
2023/06/07 05:12:47;;;;;;;4.57;1.13;;;22.70;55.90;;;;;;5037080;28;20642;-73
2023/06/07 05:15:14;;;;;;;3.50;0.90;;;22.60;56.80;;;;;;5041699;28;20533;-73
2023/06/07 05:17:44;;;;;;;3.90;1.20;;;23.20;55.60;;;;;;5033031;28;20188;-74
2023/06/07 05:20:13;;;;;;;2.67;1.00;;;23.20;54.60;;;;;;5046120;28;20173;-73
2023/06/07 05:22:41;;;;;;;3.23;1.03;;;22.90;55.80;;;;;;5044070;28;20177;-72
2023/06/07 05:25:09;;;;;;;3.40;0.90;;;22.80;54.80;;;;;;5043352;28;20563;-74
2023/06/07 05:27:42;;;;;;;4.73;0.90;;;22.40;56.10;;;;;;5039992;28;20208;-74
2023/06/07 05:30:09;;;;;;;2.77;1.17;;;22.50;55.80;;;;;;5046551;28;20176;-71
2023/06/07 05:32:38;;;;;;;3.50;0.90;;;22.20;56.90;;;;;;5035341;28;20184;-74
2023/06/07 05:35:05;;;;;;;4.10;0.90;;;22.10;57.20;;;;;;5038494;28;20259;-72
2023/06/07 05:37:33;;;;;;;2.53;1.00;;;22.20;56.90;;;;;;5043809;28;20183;-75
2023/06/07 05:40:00;;;;;;;4.00;1.00;;;22.10;56.60;;;;;;5034311;28;20258;-74
2023/06/07 05:42:28;;;;;;;2.70;1.00;;;22.30;56.80;;;;;;5039738;28;20204;-76
2023/06/07 05:44:56;;;;;;;4.33;1.27;;;21.60;57.80;;;;;;5045614;28;20215;-74
2023/06/07 05:47:26;;;;;;;2.57;1.00;;;21.50;59.10;;;;;;5020788;28;20224;-74
2023/06/07 05:49:53;;;;;;;2.00;0.90;;;21.30;59.40;;;;;;5041042;28;20192;-73
2023/06/07 05:52:21;;;;;;;2.33;1.00;;;21.30;59.90;;;;;;5043668;28;20666;-76
2023/06/07 05:54:54;;;;;;;3.97;1.10;;;21.70;58.80;;;;;;5036975;28;20239;-75
2023/06/07 05:57:22;;;;;;;5.27;1.20;;;21.90;58.50;;;;;;5046217;28;20716;-71
2023/06/07 05:59:50;;;;;;;2.63;1.23;;;22.00;58.50;;;;;;5036932;28;20184;-71
2023/06/07 06:02:20;;;;;;;4.77;1.50;;;22.20;58.80;;;;;;5038225;28;20653;-74
2023/06/07 06:04:47;;;;;;;3.90;1.20;;;21.80;59.40;;;;;;5040488;28;20172;-73
2023/06/07 06:07:17;;;;;;;3.53;1.10;;;20.90;62.60;;;;;;5037776;28;20203;-70
2023/06/07 06:09:44;;;;;;;3.00;1.00;;;20.30;64.50;;;;;;5039068;28;20184;-74
2023/06/07 06:12:12;;;;;;;6.40;1.30;;;20.00;65.80;;;;;;5044547;28;20583;-71
2023/06/07 06:14:40;;;;;;;5.17;1.40;;;19.70;67.10;;;;;;5039610;28;20184;-73
2023/06/07 06:17:07;;;;;;;1.87;0.90;;;19.50;67.70;;;;;;5023905;28;20179;-73
2023/06/07 06:19:34;;;;;;;4.33;1.40;;;19.30;68.60;;;;;;5047569;28;20181;-73
2023/06/07 06:22:02;;;;;;;4.47;1.10;;;19.10;69.10;;;;;;5035725;28;20212;-71
2023/06/07 06:24:30;;;;;;;4.57;1.37;;;19.00;69.80;;;;;;5035998;28;20603;-70
2023/06/07 06:26:57;;;;;;;4.73;1.20;;;19.00;70.50;;;;;;5037545;28;20232;-69
2023/06/07 06:29:24;;;;;;;3.70;1.40;;;18.90;71.00;;;;;;5043149;28;20567;-70
2023/06/07 06:31:52;;;;;;;4.27;1.20;;;18.80;71.60;;;;;;5040908;28;20186;-70
2023/06/07 06:34:19;;;;;;;6.07;1.47;;;18.60;72.10;;;;;;5043688;28;20175;-70
2023/06/07 06:36:48;;;;;;;2.90;1.20;;;18.50;72.70;;;;;;5045424;28;20188;-69
2023/06/07 06:39:15;;;;;;;2.57;1.17;;;18.50;73.40;;;;;;5038267;28;20173;-72
2023/06/07 06:41:43;;;;;;;3.73;1.53;;;18.40;74.00;;;;;;5043675;28;20273;-71
2023/06/07 06:44:11;;;;;;;8.47;1.60;;;18.30;74.40;;;;;;5035751;28;20187;-70
2023/06/07 06:46:38;;;;;;;5.90;1.27;;;18.30;74.70;;;;;;5040064;28;20215;-73
2023/06/07 06:49:05;;;;;;;3.20;1.00;;;18.30;75.10;;;;;;5039399;28;20201;-71
2023/06/07 06:51:33;;;;;;;3.63;1.37;;;18.30;75.30;;;;;;5035724;28;20184;-70
2023/06/07 06:54:00;;;;;;;3.73;1.33;;;18.20;75.50;;;;;;5047127;28;20185;-73
2023/06/07 06:56:27;;;;;;;5.53;1.23;;;18.10;75.60;;;;;;5020513;28;20531;-73
2023/06/07 06:58:55;;;;;;;3.30;1.40;;;18.10;75.80;;;;;;5034100;28;20195;-73
2023/06/07 07:01:22;;;;;;;5.80;1.40;;;18.00;76.00;;;;;;5043242;28;20573;-73
2023/06/07 07:03:49;;;;;;;2.40;1.07;;;18.00;76.20;;;;;;5046884;28;20638;-71
2023/06/07 07:06:16;;;;;;;2.53;1.00;;;18.00;76.50;;;;;;5035311;28;20215;-75
2023/06/07 07:08:44;;;;;;;5.53;1.40;;;17.90;76.70;;;;;;5041893;28;20188;-72
2023/06/07 07:11:12;;;;;;;5.63;1.20;;;17.90;76.90;;;;;;5038053;28;20188;-72
2023/06/07 07:13:39;;;;;;;3.43;1.40;;;17.90;77.20;;;;;;5042273;28;20266;-75
2023/06/07 07:16:06;;;;;;;4.03;1.23;;;17.80;77.60;;;;;;5039806;28;20202;-72
2023/06/07 07:18:33;;;;;;;6.50;1.50;;;17.80;77.60;;;;;;5036867;28;20199;-74
2023/06/07 07:21:01;;;;;;;3.83;1.13;;;17.80;77.80;;;;;;5034797;28;20203;-73
2023/06/07 07:23:29;;;;;;;6.60;1.50;;;17.80;77.80;;;;;;5039177;28;20275;-74
2023/06/07 07:25:56;;;;;;;8.53;2.20;;;17.80;78.10;;;;;;5043866;28;20243;-74
2023/06/07 07:28:23;;;;;;;3.87;1.60;;;17.80;78.10;;;;;;5040136;28;20192;-76
2023/06/07 07:30:50;;;;;;;5.93;1.83;;;17.70;78.20;;;;;;5027108;28;20180;-71
2023/06/07 07:33:18;;;;;;;5.57;1.90;;;17.70;78.40;;;;;;5039661;28;20186;-73
2023/06/07 07:35:45;;;;;;;6.43;1.60;;;17.60;78.80;;;;;;5023996;28;20251;-74
2023/06/07 07:38:15;;;;;;;4.67;1.60;;;17.60;79.30;;;;;;5037900;28;20174;-75
2023/06/07 07:40:44;;;;;;;5.33;1.67;;;17.60;79.30;;;;;;5039122;28;20181;-73
2023/06/07 07:43:11;;;;;;;6.23;1.60;;;17.60;79.40;;;;;;5041968;28;20261;-72
2023/06/07 07:45:39;;;;;;;5.70;1.73;;;17.50;79.50;;;;;;5041524;28;20249;-74
2023/06/07 07:48:06;;;;;;;6.70;1.73;;;17.40;79.70;;;;;;5044322;28;20191;-75
2023/06/07 07:50:37;;;;;;;6.87;2.00;;;17.50;80.00;;;;;;5037564;28;20184;-75
2023/06/07 07:53:05;;;;;;;4.07;1.50;;;17.40;80.10;;;;;;5035897;28;20662;-73
2023/06/07 07:55:35;;;;;;;4.90;1.80;;;17.40;80.10;;;;;;5031814;28;20587;-74
2023/06/07 07:58:02;;;;;;;8.47;2.33;;;17.40;80.10;;;;;;5037557;28;20688;-74
2023/06/07 08:00:29;;;;;;;5.83;2.30;;;17.30;80.20;;;;;;5041326;28;20211;-74
2023/06/07 08:02:56;;;;;;;9.17;1.93;;;17.30;80.40;;;;;;5046971;28;20326;-73
2023/06/07 08:05:24;;;;;;;5.13;2.47;;;17.30;80.40;;;;;;5040719;28;20187;-75
2023/06/07 08:07:52;;;;;;;6.60;1.90;;;17.30;80.60;;;;;;5043327;28;20216;-75
2023/06/07 08:10:20;;;;;;;5.50;1.80;;;17.30;80.70;;;;;;5040704;28;20180;-71
2023/06/07 08:12:47;;;;;;;11.03;2.40;;;17.30;80.70;;;;;;5049107;28;20190;-74
2023/06/07 08:15:14;;;;;;;7.20;2.60;;;17.20;80.70;;;;;;5038775;28;20203;-73
2023/06/07 08:17:42;;;;;;;4.47;2.27;;;17.20;80.70;;;;;;5041425;28;20184;-74
2023/06/07 08:20:10;;;;;;;7.30;2.60;;;17.20;80.80;;;;;;5044505;28;20188;-75
2023/06/07 08:22:37;;;;;;;5.53;2.73;;;17.20;80.80;;;;;;5039336;28;20217;-73
2023/06/07 08:25:07;;;;;;;11.40;2.40;;;17.20;80.80;;;;;;5042282;28;20311;-70
2023/06/07 08:27:34;;;;;;;9.17;2.63;;;17.20;80.70;;;;;;5032218;28;20216;-71
2023/06/07 08:30:02;;;;;;;6.77;2.80;;;17.20;80.50;;;;;;5039586;28;20207;-71
2023/06/07 08:32:29;;;;;;;8.07;2.87;;;17.20;80.50;;;;;;5042077;28;20185;-70
2023/06/07 08:34:56;;;;;;;7.70;2.70;;;17.20;80.60;;;;;;5046985;28;20184;-70
2023/06/07 08:37:23;;;;;;;7.57;3.63;;;17.10;80.70;;;;;;5038574;28;20669;-72
2023/06/07 08:39:51;;;;;;;6.97;3.77;;;17.10;80.90;;;;;;5039746;28;20229;-69
2023/06/07 08:42:18;;;;;;;13.53;7.40;;;17.00;81.00;;;;;;5043475;28;20528;-72
2023/06/07 08:44:46;;;;;;;9.40;4.33;;;17.00;81.10;;;;;;5041348;28;20270;-75
2023/06/07 08:47:14;;;;;;;8.17;4.37;;;17.00;81.30;;;;;;5045188;28;20279;-72
2023/06/07 08:49:47;;;;;;;11.33;4.23;;;16.90;81.40;;;;;;5046238;28;20182;-74
2023/06/07 08:52:15;;;;;;;7.37;3.60;;;16.90;81.30;;;;;;5047696;28;20181;-74
2023/06/07 08:54:44;;;;;;;8.37;3.33;;;16.80;81.50;;;;;;5045233;28;20644;-74
2023/06/07 08:57:18;;;;;;;8.53;3.43;;;16.80;81.60;;;;;;5044529;28;20199;-75
2023/06/07 08:59:47;;;;;;;9.13;3.60;;;16.80;81.40;;;;;;5047138;28;20178;-75
2023/06/07 09:02:15;;;;;;;7.67;3.83;;;16.80;81.30;;;;;;5041417;28;20543;-73
2023/06/07 09:04:43;;;;;;;9.30;4.17;;;16.80;81.40;;;;;;5047391;28;20266;-73
2023/06/07 09:07:11;;;;;;;8.30;4.27;;;16.80;81.50;;;;;;5044908;28;20216;-72
2023/06/07 09:09:41;;;;;;;6.47;3.70;;;16.70;81.60;;;;;;5038189;28;20235;-71
2023/06/07 09:12:09;;;;;;;6.23;4.27;;;16.70;81.70;;;;;;5051357;28;20186;-73
2023/06/07 09:14:37;;;;;;;7.80;3.07;;;16.70;81.60;;;;;;5045569;28;20219;-73
2023/06/07 09:17:04;;;;;;;8.40;2.70;;;16.70;81.70;;;;;;5044034;28;20265;-73
2023/06/07 09:19:36;;;;;;;4.90;3.10;;;16.60;81.60;;;;;;5036727;28;20266;-74
2023/06/07 09:22:06;;;;;;;6.20;2.87;;;16.70;81.60;;;;;;5048239;28;20169;-74
2023/06/07 09:24:34;;;;;;;7.10;3.00;;;16.70;81.40;;;;;;5044066;28;20175;-74
2023/06/07 09:27:03;;;;;;;8.27;2.97;;;16.70;81.40;;;;;;5043430;28;20249;-73
2023/06/07 09:29:38;;;;;;;11.33;3.13;;;16.70;81.40;;;;;;5041482;28;20233;-73
2023/06/07 09:32:20;;;;;;;6.43;3.10;;;16.80;81.40;;;;;;5041148;28;20218;-74
2023/06/07 09:34:49;;;;;;;7.27;2.57;;;16.70;81.30;;;;;;5040487;28;20282;-76
2023/06/07 09:37:22;;;;;;;6.97;2.70;;;16.80;81.30;;;;;;5040589;28;20539;-75
2023/06/07 09:39:53;;;;;;;11.23;3.57;;;16.80;81.30;;;;;;5044635;28;20269;-77
2023/06/07 09:42:20;;;;;;;12.30;4.03;;;16.80;81.40;;;;;;5044831;28;20168;-75
2023/06/07 09:44:48;;;;;;;7.33;3.03;;;16.80;81.30;;;;;;5041461;28;20183;-74
2023/06/07 09:47:23;;;;;;;11.60;2.80;;;16.80;81.50;;;;;;5044242;28;20730;-75
2023/06/07 09:49:55;;;;;;;7.53;3.10;;;16.80;81.60;;;;;;5038677;28;20183;-76
2023/06/07 09:52:26;;;;;;;8.53;3.53;;;16.80;81.60;;;;;;5044240;28;20187;-72
2023/06/07 09:54:53;;;;;;;11.40;3.47;;;16.80;81.80;;;;;;5034310;28;20521;-75
2023/06/07 09:57:26;;;;;;;8.27;2.97;;;16.80;81.90;;;;;;5040015;28;20221;-76
2023/06/07 10:00:21;;;;;;;9.10;2.83;;;16.70;82.00;;;;;;5046933;28;20241;-75
2023/06/07 10:02:50;;;;;;;5.00;2.57;;;16.70;82.10;;;;;;5043044;28;20674;-76
2023/06/07 10:05:21;;;;;;;8.80;3.23;;;16.70;82.20;;;;;;5040040;28;20226;-76
2023/06/07 10:07:51;;;;;;;4.60;2.77;;;16.70;82.40;;;;;;5020605;28;20236;-75
2023/06/07 10:10:22;;;;;;;7.10;2.70;;;16.70;82.50;;;;;;5037640;28;20195;-70
2023/06/07 10:12:51;;;;;;;13.53;3.30;;;16.70;82.50;;;;;;5042394;28;20242;-76
2023/06/07 10:15:25;;;;;;;6.80;2.87;;;16.70;82.50;;;;;;5042131;28;20559;-74
2023/06/07 10:18:21;;;;;;;7.80;3.10;;;16.70;82.70;;;;;;5039055;28;20211;-74
2023/06/07 10:20:57;;;;;;;6.13;3.00;;;16.60;82.50;;;;;;5043623;28;20354;-73
2023/06/07 10:23:35;;;;;;;9.37;3.30;;;16.60;82.80;;;;;;5035585;28;20267;-75
2023/06/07 10:26:11;;;;;;;8.43;3.00;;;16.60;82.80;;;;;;5045033;28;20302;-74
2023/06/07 10:28:59;;;;;;;6.83;3.00;;;16.60;83.20;;;;;;5042822;28;20191;-75
2023/06/07 10:31:31;;;;;;;5.17;2.77;;;16.60;83.00;;;;;;5037192;28;20624;-75
2023/06/07 10:34:00;;;;;;;11.93;3.03;;;16.60;83.10;;;;;;5023228;28;20187;-75
2023/06/07 10:36:27;;;;;;;6.43;2.80;;;16.60;82.70;;;;;;5039621;28;20179;-75
2023/06/07 10:38:56;;;;;;;10.40;2.87;;;16.60;82.80;;;;;;5037181;28;20547;-74
2023/06/07 10:41:24;;;;;;;9.70;3.03;;;16.60;83.00;;;;;;5042297;28;20187;-75
2023/06/07 10:43:51;;;;;;;7.47;3.00;;;16.50;83.00;;;;;;5044187;28;20184;-75
2023/06/07 10:46:19;;;;;;;12.10;3.60;;;16.50;83.30;;;;;;5044641;28;20212;-69
2023/06/07 10:48:47;;;;;;;5.53;3.53;;;16.40;83.20;;;;;;5042317;28;20286;-74
2023/06/07 10:51:15;;;;;;;8.03;3.30;;;16.30;83.20;;;;;;5042234;28;20258;-73
2023/06/07 10:53:50;;;;;;;8.80;4.20;;;16.20;83.70;;;;;;5042455;28;20215;-73
2023/06/07 10:56:29;;;;;;;7.07;3.77;;;16.20;83.90;;;;;;5040709;28;20198;-71
2023/06/07 10:58:59;;;;;;;6.33;4.00;;;16.10;84.30;;;;;;5034126;28;20195;-72
2023/06/07 11:01:26;;;;;;;9.47;4.17;;;16.10;84.50;;;;;;5045413;28;20187;-73
2023/06/07 11:03:54;;;;;;;8.53;3.70;;;16.00;84.70;;;;;;5036255;28;20188;-70
2023/06/07 11:06:21;;;;;;;12.00;3.93;;;16.00;84.70;;;;;;5041987;28;20298;-74
2023/06/07 11:08:49;;;;;;;10.53;3.60;;;15.90;85.00;;;;;;5034510;28;20266;-73
2023/06/07 11:11:41;;;;;;;11.27;4.27;;;15.90;85.40;;;;;;5036316;28;20195;-74
2023/06/07 11:14:09;;;;;;;12.07;4.87;;;16.00;85.40;;;;;;5038128;28;20191;-70
2023/06/07 11:16:37;;;;;;;10.10;3.90;;;16.00;85.30;;;;;;5036337;28;20187;-68
2023/06/07 11:19:11;;;;;;;8.63;4.53;;;16.00;85.30;;;;;;5043420;28;20201;-76
2023/06/07 11:22:06;;;;;;;10.57;3.97;;;16.00;85.30;;;;;;5040162;28;20215;-69
2023/06/07 11:24:35;;;;;;;8.50;4.00;;;15.90;85.30;;;;;;5041903;28;20249;-69
2023/06/07 11:27:03;;;;;;;6.70;4.03;;;15.90;85.40;;;;;;5038773;28;20237;-69
2023/06/07 11:29:30;;;;;;;10.40;4.53;;;15.90;85.40;;;;;;5037974;28;20553;-70
2023/06/07 11:32:03;;;;;;;8.50;4.43;;;15.80;85.40;;;;;;5043315;28;20704;-69
2023/06/07 11:34:33;;;;;;;8.80;4.20;;;15.80;85.60;;;;;;5021391;28;20191;-70
2023/06/07 11:37:14;;;;;;;10.43;4.67;;;15.80;85.80;;;;;;5039433;28;20268;-72
2023/06/07 11:39:41;;;;;;;6.07;4.07;;;15.80;86.00;;;;;;5033256;28;20188;-74
2023/06/07 11:42:12;;;;;;;4.50;3.90;;;15.80;86.10;;;;;;5042048;28;20676;-71
2023/06/07 11:44:39;;;;;;;5.33;4.07;;;15.90;85.90;;;;;;5037200;28;20218;-71
2023/06/07 11:47:07;;;;;;;11.77;4.33;;;15.90;85.90;;;;;;5043174;28;20242;-70
2023/06/07 11:49:38;;;;;;;10.70;4.13;;;15.90;85.70;;;;;;5039361;28;20239;-75
2023/06/07 11:52:06;;;;;;;10.17;4.03;;;16.00;85.70;;;;;;5045667;28;20196;-72
2023/06/07 11:54:34;;;;;;;9.73;4.27;;;16.00;85.70;;;;;;5042007;28;20193;-72
2023/06/07 11:57:01;;;;;;;7.83;4.20;;;16.00;85.60;;;;;;5039991;28;20189;-73
2023/06/07 11:59:30;;;;;;;9.47;4.27;;;16.00;85.40;;;;;;5040990;28;20554;-73
2023/06/07 12:01:58;;;;;;;11.20;4.50;;;16.00;85.30;;;;;;5042544;28;20190;-68
2023/06/07 12:04:26;;;;;;;12.50;4.00;;;16.00;85.20;;;;;;5045544;28;20543;-74
2023/06/07 12:06:54;;;;;;;11.70;4.03;;;16.00;85.10;;;;;;5041699;28;20222;-73
2023/06/07 12:09:22;;;;;;;6.70;4.13;;;16.00;84.90;;;;;;5037574;28;20194;-73
2023/06/07 12:11:49;;;;;;;10.00;4.37;;;16.00;84.90;;;;;;5036964;28;20196;-73
2023/06/07 12:14:33;;;;;;;5.00;3.57;;;16.00;84.70;;;;;;5043308;28;20188;-76
2023/06/07 12:17:00;;;;;;;6.53;3.70;;;16.00;84.90;;;;;;5042782;28;20659;-75
2023/06/07 12:19:28;;;;;;;5.40;3.63;;;16.10;84.70;;;;;;5048155;28;20191;-73
2023/06/07 12:22:08;;;;;;;6.83;3.10;;;16.10;84.40;;;;;;5041320;28;20708;-74
2023/06/07 12:24:39;;;;;;;5.50;3.40;;;16.10;84.50;;;;;;5045210;28;20272;-74
2023/06/07 12:27:07;;;;;;;8.40;3.47;;;16.10;84.40;;;;;;5041880;28;20226;-75
2023/06/07 12:29:34;;;;;;;10.87;3.47;;;16.10;84.20;;;;;;5049645;28;20538;-73
2023/06/07 12:32:02;;;;;;;11.77;3.53;;;16.20;84.10;;;;;;5044326;28;20191;-74
2023/06/07 12:34:33;;;;;;;7.70;3.53;;;16.10;84.10;;;;;;5043257;28;20189;-75
2023/06/07 12:37:01;;;;;;;6.17;3.50;;;16.20;83.90;;;;;;5043219;28;20188;-74
2023/06/07 12:39:30;;;;;;;5.20;3.20;;;16.20;83.90;;;;;;5044451;28;20204;-72
2023/06/07 12:41:58;;;;;;;9.00;3.47;;;16.20;84.00;;;;;;5046383;28;20178;-73
2023/06/07 12:44:26;;;;;;;10.13;3.77;;;16.10;84.00;;;;;;5037245;28;20179;-73
2023/06/07 12:46:53;;;;;;;5.93;3.40;;;16.10;84.20;;;;;;5046579;28;20217;-74
2023/06/07 12:49:20;;;;;;;7.43;3.87;;;16.10;84.10;;;;;;5042727;28;20733;-74
2023/06/07 12:51:48;;;;;;;9.03;3.80;;;16.10;84.40;;;;;;5035403;28;20192;-69
2023/06/07 12:54:15;;;;;;;5.57;3.50;;;16.10;84.20;;;;;;5043811;28;20519;-74